Time;durP1;ratioP1;P1;durP2;ratioP2;P2;SDS_P1;SDS_P2;PMS_P1;PMS_P2;Temp;Humidity;BMP_temperature;BMP_pressure;BME280_temperature;BME280_humidity;BME280_pressure;Samples;Min_cycle;Max_cycle;Signal;HPM_P1;HPM_P2
2022/03/28 00:00:09;;;;;;;15.28;6.12;;;;;;;3.31;32.24;102583.56;1696034;83;27492;-61
2022/03/28 00:02:41;;;;;;;14.58;5.67;;;;;;;3.25;32.35;102586.41;1749537;80;25822;-60
2022/03/28 00:05:10;;;;;;;23.12;5.40;;;;;;;3.19;32.23;102579.92;1755813;80;25465;-61
2022/03/28 00:07:37;;;;;;;12.03;5.25;;;;;;;3.16;32.40;102578.70;1752226;80;26627;-61
2022/03/28 00:10:05;;;;;;;12.00;5.22;;;;;;;3.12;32.26;102577.91;1723250;81;25814;-60
2022/03/28 00:12:33;;;;;;;10.53;5.33;;;;;;;3.11;32.35;102574.36;1756603;80;27626;-60
2022/03/28 00:15:01;;;;;;;13.93;4.95;;;;;;;3.11;32.36;102584.14;1737804;81;25731;-60
2022/03/28 00:17:31;;;;;;;9.85;5.30;;;;;;;3.07;32.30;102571.39;1739176;81;25832;-61
2022/03/28 00:20:06;;;;;;;16.07;5.47;;;;;;;3.10;32.20;102570.42;1745063;81;25848;-61
2022/03/28 00:22:33;;;;;;;11.12;4.72;;;;;;;3.06;32.22;102567.42;1739937;81;25934;-61
2022/03/28 00:25:00;;;;;;;14.50;4.85;;;;;;;3.01;32.12;102552.07;1742288;81;27465;-61
2022/03/28 00:27:27;;;;;;;23.47;5.70;;;;;;;2.98;32.10;102557.03;1738729;81;25669;-61
2022/03/28 00:29:54;;;;;;;11.43;4.67;;;;;;;2.97;32.28;102564.11;1745564;81;25682;-62
2022/03/28 00:32:22;;;;;;;23.65;6.33;;;;;;;2.97;32.06;102564.59;1746076;81;25749;-61
2022/03/28 00:34:49;;;;;;;19.57;5.65;;;;;;;2.97;32.59;102563.25;1743144;81;25787;-61
2022/03/28 00:37:16;;;;;;;18.37;4.62;;;;;;;2.94;32.66;102557.57;1751464;81;28803;-60
2022/03/28 00:39:44;;;;;;;12.18;4.67;;;;;;;2.92;33.20;102566.48;1736622;80;25862;-61
2022/03/28 00:42:11;;;;;;;12.73;5.08;;;;;;;2.89;33.18;102562.59;1727973;83;25743;-61
2022/03/28 00:44:38;;;;;;;11.70;4.33;;;;;;;2.88;32.78;102568.35;1728216;83;25803;-60
2022/03/28 00:47:06;;;;;;;10.18;4.05;;;;;;;2.87;32.92;102562.62;1758070;80;25799;-61
2022/03/28 00:49:34;;;;;;;15.23;4.47;;;;;;;2.84;33.64;102556.52;1757820;80;28295;-61
2022/03/28 00:52:02;;;;;;;18.73;6.20;;;;;;;2.78;33.87;102562.43;1759684;81;25656;-62
2022/03/28 00:54:29;;;;;;;16.55;5.12;;;;;;;2.71;34.17;102560.86;1760049;81;25680;-62
2022/03/28 00:56:56;;;;;;;9.83;3.67;;;;;;;2.65;34.44;102567.20;1756989;80;26409;-61
2022/03/28 00:59:23;;;;;;;13.22;3.50;;;;;;;2.60;34.51;102562.45;1735976;80;25506;-62
2022/03/28 01:01:50;;;;;;;15.38;5.05;;;;;;;2.56;34.67;102564.78;1728708;82;28497;-61
2022/03/28 01:04:17;;;;;;;13.78;4.33;;;;;;;2.53;35.62;102560.87;1748928;82;25878;-61
2022/03/28 01:06:44;;;;;;;14.15;4.85;;;;;;;2.44;35.91;102561.11;1749388;82;25675;-61
2022/03/28 01:09:11;;;;;;;20.50;4.35;;;;;;;2.38;35.94;102565.25;1767060;80;25781;-60
2022/03/28 01:11:42;;;;;;;6.50;3.65;;;;;;;2.32;36.20;102568.50;1781991;79;25511;-61
2022/03/28 01:14:08;;;;;;;12.75;4.70;;;;;;;2.25;36.54;102560.70;1781828;79;27642;-61
2022/03/28 01:19:20;;;;;;;11.28;3.77;;;;;;;2.08;37.72;102555.80;1780903;79;25775;-61
2022/03/28 01:21:47;;;;;;;14.20;4.40;;;;;;;1.98;38.32;102554.69;1781752;80;25925;-62
2022/03/28 01:24:14;;;;;;;12.53;4.42;;;;;;;1.91;38.27;102554.42;1781401;80;25641;-61
2022/03/28 01:26:43;;;;;;;19.67;4.30;;;;;;;1.84;38.13;102556.81;1781845;79;27489;-60
2022/03/28 01:29:10;;;;;;;13.68;4.30;;;;;;;1.77;38.09;102556.07;1780904;80;26283;-62
2022/03/28 01:31:40;;;;;;;20.70;4.85;;;;;;;1.76;38.47;102552.14;1781749;79;25743;-62
2022/03/28 01:34:18;;;;;;;18.60;5.65;;;;;;;1.74;38.67;102555.27;1781427;79;25946;-62
2022/03/28 01:36:47;;;;;;;8.75;3.45;;;;;;;1.69;38.10;102558.03;1782110;79;25695;-62
2022/03/28 01:39:16;;;;;;;12.78;4.50;;;;;;;1.63;38.61;102557.70;1764415;79;27533;-61
2022/03/28 01:41:44;;;;;;;20.27;4.58;;;;;;;1.62;38.63;102553.30;1748933;82;25460;-61
2022/03/28 01:44:12;;;;;;;9.03;4.50;;;;;;;1.61;38.27;102552.02;1749128;82;25725;-61
2022/03/28 01:46:45;;;;;;;11.73;4.60;;;;;;;1.59;38.32;102552.50;1749371;82;26612;-61
2022/03/28 01:49:15;;;;;;;11.40;4.40;;;;;;;1.56;38.78;102558.32;1765422;80;25859;-62
2022/03/28 01:51:42;;;;;;;9.95;4.55;;;;;;;1.56;38.63;102546.38;1771248;79;27521;-61
2022/03/28 01:54:10;;;;;;;13.13;4.15;;;;;;;1.57;38.66;102543.27;1750662;81;25729;-59
2022/03/28 01:56:38;;;;;;;30.30;4.97;;;;;;;1.57;38.63;102547.24;1750397;80;25842;-60
2022/03/28 01:59:07;;;;;;;12.68;4.33;;;;;;;1.53;38.65;102548.20;1767144;79;26703;-61
2022/03/28 02:01:36;;;;;;;14.63;5.12;;;;;;;1.50;38.51;102543.84;1753941;81;25947;-61
2022/03/28 02:04:03;;;;;;;10.15;4.28;;;;;;;1.48;38.46;102543.00;1726186;81;28406;-60
2022/03/28 02:06:33;;;;;;;21.20;4.75;;;;;;;1.40;38.84;102543.62;1714553;83;26393;-61
2022/03/28 02:08:59;;;;;;;16.80;4.42;;;;;;;1.35;38.77;102542.86;1706733;84;25752;-60
2022/03/28 02:11:26;;;;;;;14.98;4.50;;;;;;;1.32;38.89;102546.45;1702502;84;26528;-61
2022/03/28 02:13:53;;;;;;;19.57;5.17;;;;;;;1.29;39.28;102540.34;1676836;84;25750;-61
2022/03/28 02:16:20;;;;;;;15.28;5.10;;;;;;;1.21;39.19;102544.48;1676777;85;27497;-60
2022/03/28 02:18:47;;;;;;;7.85;4.20;;;;;;;1.20;39.07;102545.37;1676604;85;25527;-61
2022/03/28 02:21:14;;;;;;;18.42;5.10;;;;;;;1.20;39.37;102548.92;1677988;84;26495;-61
2022/03/28 02:23:41;;;;;;;31.85;6.12;;;;;;;1.20;39.48;102546.27;1706589;84;25793;-61
2022/03/28 02:26:08;;;;;;;13.32;4.42;;;;;;;1.22;39.19;102547.55;1706791;82;25775;-61
2022/03/28 02:28:35;;;;;;;16.82;5.47;;;;;;;1.22;39.96;102544.90;1706703;84;27483;-62
2022/03/28 02:31:03;;;;;;;10.32;4.87;;;;;;;1.20;39.90;102548.92;1706719;84;25719;-61
2022/03/28 02:33:30;;;;;;;13.90;4.35;;;;;;;1.17;40.33;102541.02;1677988;84;25819;-61
2022/03/28 02:35:57;;;;;;;12.35;4.20;;;;;;;1.15;40.20;102536.66;1676828;84;25809;-61
2022/03/28 02:38:23;;;;;;;18.77;5.22;;;;;;;1.15;40.18;102534.01;1676714;85;26395;-60
2022/03/28 02:40:50;;;;;;;13.38;4.92;;;;;;;1.15;40.33;102532.22;1676773;85;27570;-60
2022/03/28 02:43:21;;;;;;;13.53;4.45;;;;;;;1.11;40.25;102527.01;1702640;84;25665;-60
2022/03/28 02:45:47;;;;;;;10.10;4.42;;;;;;;1.09;40.83;102525.73;1706678;82;25488;-60
2022/03/28 02:48:14;;;;;;;11.33;4.25;;;;;;;1.08;40.72;102526.62;1707162;82;25780;-61
2022/03/28 02:50:42;;;;;;;15.50;4.35;;;;;;;1.06;40.98;102517.83;1706759;84;25840;-61
2022/03/28 02:53:09;;;;;;;8.95;4.05;;;;;;;1.05;40.78;102519.62;1683247;84;27585;-60
2022/03/28 02:55:35;;;;;;;17.20;5.25;;;;;;;1.02;40.86;102518.34;1676741;84;25547;-60
2022/03/28 02:58:02;;;;;;;12.28;4.65;;;;;;;1.01;40.99;102513.94;1700590;82;25712;-61
2022/03/28 03:00:29;;;;;;;14.90;4.05;;;;;;;0.97;41.23;102506.98;1706990;84;26439;-61
2022/03/28 03:02:57;;;;;;;10.40;4.10;;;;;;;0.93;41.21;102499.98;1717933;83;25972;-61
2022/03/28 03:05:24;;;;;;;17.02;4.60;;;;;;;0.91;41.70;102501.34;1727785;83;27484;-62
2022/03/28 03:07:51;;;;;;;19.45;4.30;;;;;;;0.88;41.58;102496.56;1727780;83;26472;-61
2022/03/28 03:10:18;;;;;;;18.55;5.08;;;;;;;0.80;41.93;102497.17;1727991;83;25720;-61
2022/03/28 03:12:45;;;;;;;9.58;4.20;;;;;;;0.66;42.02;102500.95;1746604;81;26707;-61
2022/03/28 03:15:12;;;;;;;15.65;4.50;;;;;;;0.61;42.57;102503.68;1760023;80;25810;-60
2022/03/28 03:17:39;;;;;;;14.05;5.83;;;;;;;0.59;43.04;102502.83;1759914;81;28339;-61
2022/03/28 03:20:08;;;;;;;12.82;4.53;;;;;;;0.54;43.24;102502.06;1759805;81;25895;-61
2022/03/28 03:22:35;;;;;;;15.88;4.80;;;;;;;0.50;43.05;102493.73;1743786;81;25539;-60
2022/03/28 03:25:03;;;;;;;16.15;4.92;;;;;;;0.49;43.03;102492.45;1738812;81;25830;-61
2022/03/28 03:27:30;;;;;;;14.03;4.70;;;;;;;0.48;43.54;102494.67;1759786;81;25865;-62
2022/03/28 03:29:57;;;;;;;13.88;4.75;;;;;;;0.49;43.43;102496.42;1760080;81;28245;-61
2022/03/28 03:32:24;;;;;;;13.60;5.05;;;;;;;0.47;43.35;102492.48;1746791;81;25734;-61
2022/03/28 03:34:52;;;;;;;23.42;5.72;;;;;;;0.46;43.03;102497.36;1729677;82;25822;-61
2022/03/28 03:37:18;;;;;;;15.68;4.80;;;;;;;0.44;43.38;102496.07;1729713;82;25793;-60
2022/03/28 03:39:45;;;;;;;31.23;9.80;;;;;;;0.45;43.26;102506.20;1729476;82;26129;-61
2022/03/28 03:42:12;;;;;;;36.08;12.85;;;;;;;0.43;43.29;102504.02;1739236;81;27488;-61
2022/03/28 03:44:38;;;;;;;16.55;5.75;;;;;;;0.45;43.59;102507.05;1759366;81;25671;-60
2022/03/28 03:47:08;;;;;;;32.20;8.40;;;;;;;0.49;43.07;102499.06;1759695;81;25754;-60
2022/03/28 03:49:34;;;;;;;35.25;10.48;;;;;;;0.47;42.84;102499.11;1759131;80;25796;-60
2022/03/28 03:52:01;;;;;;;37.08;13.32;;;;;;;0.42;42.72;102493.89;1748389;81;25516;-61
2022/03/28 03:54:28;;;;;;;24.30;8.95;;;;;;;0.41;42.84;102496.55;1729876;81;27449;-61
2022/03/28 03:56:55;;;;;;;18.92;6.72;;;;;;;0.39;42.63;102491.30;1766438;79;25742;-61
2022/03/28 03:59:21;;;;;;;70.37;28.10;;;;;;;0.37;42.83;102484.28;1739708;80;25763;-62
2022/03/28 04:01:49;;;;;;;18.00;7.15;;;;;;;0.31;42.38;102486.12;1729467;81;26747;-62
2022/03/28 04:04:16;;;;;;;12.93;5.25;;;;;;;0.30;42.30;102476.90;1734693;82;25785;-60
2022/03/28 04:06:43;;;;;;;26.10;7.58;;;;;;;0.29;42.30;102472.50;1746124;82;28127;-61
2022/03/28 04:09:10;;;;;;;21.77;6.65;;;;;;;0.29;42.35;102475.15;1746081;80;25707;-60
2022/03/28 04:11:37;;;;;;;22.05;5.47;;;;;;;0.30;43.02;102468.95;1745867;80;25823;-61
2022/03/28 04:14:03;;;;;;;21.50;6.80;;;;;;;0.30;42.80;102467.20;1743483;82;25815;-61
2022/03/28 04:16:30;;;;;;;29.00;5.95;;;;;;;0.33;42.89;102460.08;1743585;82;25745;-62
2022/03/28 04:18:57;;;;;;;28.92;6.67;;;;;;;0.34;42.56;102462.72;1743664;80;27426;-61
2022/03/28 04:21:24;;;;;;;22.67;7.08;;;;;;;0.32;42.54;102459.22;1755112;80;25682;-61
2022/03/28 04:23:51;;;;;;;18.20;5.70;;;;;;;0.28;42.57;102466.78;1773711;80;25935;-60
2022/03/28 04:26:18;;;;;;;22.85;7.20;;;;;;;0.26;42.56;102472.11;1773814;80;26633;-60
2022/03/28 04:28:45;;;;;;;17.20;5.97;;;;;;;0.26;42.60;102480.05;1774120;80;25756;-61
2022/03/28 04:31:13;;;;;;;21.48;5.67;;;;;;;0.25;42.37;102488.03;1765106;80;27682;-60
2022/03/28 04:33:40;;;;;;;21.42;5.87;;;;;;;0.27;42.41;102492.86;1743724;82;25518;-61
2022/03/28 04:36:06;;;;;;;26.50;6.58;;;;;;;0.25;42.17;102484.06;1743523;82;25770;-62
2022/03/28 04:38:33;;;;;;;15.00;5.67;;;;;;;0.29;42.38;102493.67;1743443;82;25810;-61
2022/03/28 04:41:00;;;;;;;21.52;4.97;;;;;;;0.33;42.48;102495.39;1748618;80;25778;-61
2022/03/28 04:43:27;;;;;;;24.20;6.75;;;;;;;0.39;42.76;102497.91;1774546;80;27591;-60
2022/03/28 04:45:54;;;;;;;16.80;6.47;;;;;;;0.49;42.78;102499.06;1774091;80;26583;-61
2022/03/28 04:48:20;;;;;;;21.90;6.25;;;;;;;0.53;43.04;102498.98;1774405;80;25699;-60
2022/03/28 04:50:48;;;;;;;25.75;6.97;;;;;;;0.57;42.86;102486.12;1772181;80;25858;-60
2022/03/28 04:53:16;;;;;;;27.25;8.10;;;;;;;0.65;42.92;102491.72;1714494;82;25917;-61
2022/03/28 04:55:44;;;;;;;35.30;8.35;;;;;;;0.67;42.92;102495.22;1743545;82;28505;-60
2022/03/28 04:58:11;;;;;;;35.65;8.80;;;;;;;0.70;42.62;102493.81;1770468;79;25783;-61
2022/03/28 05:00:38;;;;;;;36.90;9.35;;;;;;;0.75;42.57;102494.14;1743874;80;25679;-61
2022/03/28 05:03:06;;;;;;;44.40;10.72;;;;;;;0.82;42.71;102495.34;1774172;80;25922;-62
2022/03/28 05:05:33;;;;;;;33.53;11.43;;;;;;;0.86;42.69;102494.39;1774229;79;25732;-59
2022/03/28 05:08:00;;;;;;;27.90;8.40;;;;;;;0.88;42.53;102502.72;1774364;79;27526;-62
2022/03/28 05:10:27;;;;;;;48.80;12.60;;;;;;;0.93;42.47;102498.22;1774202;79;25454;-61
2022/03/28 05:12:53;;;;;;;81.75;18.90;;;;;;;0.97;42.30;102501.68;1745242;80;25481;-61
2022/03/28 05:15:21;;;;;;;88.87;19.92;;;;;;;1.05;42.15;102494.87;1741832;81;27139;-62
2022/03/28 05:20:39;;;;;;;65.00;16.20;;;;;;;1.08;42.05;102484.22;1681880;83;26823;-61
2022/03/28 05:23:06;;;;;;;65.40;17.17;;;;;;;1.10;41.89;102481.09;1750245;82;25730;-61
2022/03/28 05:25:33;;;;;;;60.03;16.97;;;;;;;1.13;41.83;102479.67;1749780;82;25733;-61
2022/03/28 05:28:00;;;;;;;52.55;18.17;;;;;;;1.17;41.72;102478.72;1750402;82;25644;-61
2022/03/28 05:30:27;;;;;;;71.45;24.67;;;;;;;1.25;41.82;102471.94;1747673;81;25712;-61
2022/03/28 05:32:55;;;;;;;63.13;22.65;;;;;;;1.37;41.86;102470.78;1734526;82;27133;-61
2022/03/28 05:35:21;;;;;;;76.33;25.35;;;;;;;1.47;41.52;102475.41;1713822;83;27318;-62
2022/03/28 05:37:49;;;;;;;72.62;24.20;;;;;;;1.53;41.29;102464.65;1722180;81;25755;-62
2022/03/28 05:40:16;;;;;;;62.10;20.40;;;;;;;1.62;41.33;102463.11;1682153;84;25792;-62
2022/03/28 05:42:43;;;;;;;82.70;22.93;;;;;;;1.71;41.08;102462.03;1679875;83;25678;-62
2022/03/28 05:45:12;;;;;;;65.10;21.73;;;;;;;1.82;40.89;102455.12;1683976;85;27639;-62
2022/03/28 05:47:40;;;;;;;57.45;18.77;;;;;;;1.90;40.57;102453.61;1713152;83;25842;-62
2022/03/28 05:50:09;;;;;;;57.27;21.05;;;;;;;1.94;40.12;102452.17;1734474;82;25546;-62
2022/03/28 05:52:37;;;;;;;56.37;19.17;;;;;;;2.00;39.94;102451.15;1734360;82;25764;-62
2022/03/28 05:55:06;;;;;;;60.43;19.37;;;;;;;2.07;39.83;102447.86;1734194;82;25950;-61
2022/03/28 05:57:33;;;;;;;48.40;20.12;;;;;;;2.13;39.79;102443.73;1725484;82;27548;-61
2022/03/28 06:00:00;;;;;;;36.65;15.10;;;;;;;2.18;39.96;102438.73;1739417;82;25919;-62
2022/03/28 06:02:26;;;;;;;54.35;15.28;;;;;;;2.22;39.71;102442.61;1734586;82;25615;-60
2022/03/28 06:04:54;;;;;;;41.02;15.30;;;;;;;2.29;39.58;102436.21;1734218;82;26384;-62
2022/03/28 06:07:21;;;;;;;43.80;16.45;;;;;;;2.33;39.36;102429.45;1734214;82;25783;-61
2022/03/28 06:09:47;;;;;;;44.80;17.17;;;;;;;2.39;39.29;102431.06;1734148;82;27476;-62
2022/03/28 06:12:15;;;;;;;62.25;19.98;;;;;;;2.48;39.11;102428.62;1734452;82;25917;-62
2022/03/28 06:14:42;;;;;;;56.33;16.85;;;;;;;2.55;39.12;102425.35;1734196;82;25766;-62
2022/03/28 06:17:09;;;;;;;52.58;19.37;;;;;;;2.62;39.00;102420.27;1734285;82;25800;-61
2022/03/28 06:19:36;;;;;;;59.65;20.45;;;;;;;2.70;38.91;102413.38;1737233;82;25435;-62
2022/03/28 06:22:03;;;;;;;59.50;22.40;;;;;;;2.79;38.81;102409.13;1738806;82;27455;-61
2022/03/28 06:24:30;;;;;;;63.70;22.85;;;;;;;2.85;38.79;102411.62;1738945;81;25835;-62
2022/03/28 06:26:57;;;;;;;69.72;25.92;;;;;;;2.93;38.73;102403.41;1739316;81;25775;-61
2022/03/28 06:29:24;;;;;;;66.95;22.07;;;;;;;3.00;38.73;102404.98;1739484;82;26626;-61
2022/03/28 06:31:51;;;;;;;53.42;19.40;;;;;;;3.08;38.58;102397.64;1739418;82;25458;-61
2022/03/28 06:34:18;;;;;;;33.73;12.53;;;;;;;3.19;38.28;102384.00;1739103;82;27559;-62
2022/03/28 06:36:45;;;;;;;34.88;10.72;;;;;;;3.28;37.67;102375.72;1739119;82;25752;-61
2022/03/28 06:39:14;;;;;;;35.73;9.63;;;;;;;3.37;37.43;102365.70;1738961;82;25475;-61
2022/03/28 06:41:42;;;;;;;42.23;11.30;;;;;;;3.45;37.21;102371.16;1739051;82;25911;-61
2022/03/28 06:44:11;;;;;;;42.70;15.50;;;;;;;3.54;37.15;102375.80;1738792;82;25801;-61
2022/03/28 06:46:40;;;;;;;40.83;14.30;;;;;;;3.64;36.88;102373.69;1739063;82;26974;-62
2022/03/28 06:49:07;;;;;;;35.98;12.20;;;;;;;3.73;36.88;102376.05;1718015;82;25971;-61
2022/03/28 06:51:35;;;;;;;52.30;13.28;;;;;;;3.83;36.85;102376.58;1738928;82;25782;-61
2022/03/28 06:54:04;;;;;;;41.02;12.90;;;;;;;3.92;36.76;102374.94;1738903;82;25780;-61
2022/03/28 06:56:32;;;;;;;39.08;11.93;;;;;;;4.03;36.61;102373.25;1739322;82;25830;-62
2022/03/28 06:59:00;;;;;;;36.50;12.40;;;;;;;4.15;36.44;102370.61;1739281;81;27430;-62
2022/03/28 07:01:26;;;;;;;49.75;13.08;;;;;;;4.26;36.22;102363.55;1739353;82;25885;-63
2022/03/28 07:03:55;;;;;;;38.92;11.30;;;;;;;4.38;36.21;102360.45;1732775;82;25735;-62
2022/03/28 07:06:22;;;;;;;40.05;9.95;;;;;;;4.54;35.69;102358.94;1739110;82;26285;-62
2022/03/28 07:08:48;;;;;;;47.03;12.58;;;;;;;4.70;35.66;102359.68;1733457;82;25703;-61
2022/03/28 07:11:15;;;;;;;38.75;11.22;;;;;;;4.87;34.97;102356.38;1738426;82;27468;-62
2022/03/28 07:13:42;;;;;;;36.58;9.38;;;;;;;5.02;35.01;102349.54;1729074;82;25751;-62
2022/03/28 07:16:09;;;;;;;26.40;7.00;;;;;;;5.19;33.75;102345.34;1739471;81;25682;-61
2022/03/28 07:18:36;;;;;;;15.80;6.05;;;;;;;5.40;32.61;102339.59;1739199;82;26048;-62
2022/03/28 07:21:03;;;;;;;19.87;4.80;;;;;;;5.62;31.76;102340.41;1729594;82;25826;-61
2022/03/28 07:23:31;;;;;;;13.08;3.85;;;;;;;5.88;30.14;102334.41;1704905;82;27594;-62
2022/03/28 07:25:58;;;;;;;14.23;2.87;;;;;;;6.19;28.37;102333.54;1703645;82;25728;-61
2022/03/28 07:28:24;;;;;;;13.65;3.47;;;;;;;6.37;28.36;102327.36;1703333;84;25788;-59
2022/03/28 07:30:51;;;;;;;11.83;3.25;;;;;;;6.56;27.54;102322.50;1710941;80;27895;-60
2022/03/28 07:33:18;;;;;;;13.15;3.15;;;;;;;6.79;26.68;102329.44;1709307;82;25737;-61
2022/03/28 07:35:45;;;;;;;10.53;3.77;;;;;;;6.96;26.94;102315.71;1709426;82;27457;-62
2022/03/28 07:38:12;;;;;;;9.05;3.47;;;;;;;7.17;26.99;102314.67;1716134;82;25486;-61
2022/03/28 07:40:40;;;;;;;18.30;8.65;;;;;;;7.35;26.86;102304.84;1736204;81;25538;-60
2022/03/28 07:43:08;;;;;;;28.23;9.95;;;;;;;7.52;26.75;102305.81;1704308;82;25807;-61
2022/03/28 07:45:36;;;;;;;23.27;8.65;;;;;;;7.66;25.84;102301.94;1689622;83;25800;-61
2022/03/28 07:48:06;;;;;;;23.20;7.72;;;;;;;7.78;26.57;102297.75;1749782;82;27588;-61
2022/03/28 07:50:34;;;;;;;13.15;5.00;;;;;;;7.94;25.68;102294.25;1738514;81;25948;-60
2022/03/28 07:53:02;;;;;;;14.93;4.60;;;;;;;8.08;24.93;102287.70;1723173;81;25749;-61
2022/03/28 07:55:29;;;;;;;10.75;4.92;;;;;;;8.18;24.95;102288.55;1716801;82;25796;-60
2022/03/28 07:57:59;;;;;;;10.93;4.20;;;;;;;8.29;24.55;102288.34;1703049;84;26615;-61
2022/03/28 08:00:25;;;;;;;15.05;4.83;;;;;;;8.33;24.87;102285.02;1683819;84;27543;-60
2022/03/28 08:02:53;;;;;;;19.80;4.03;;;;;;;8.41;24.95;102281.44;1719853;82;25774;-63
2022/03/28 08:05:25;;;;;;;9.85;4.25;;;;;;;8.56;24.55;102281.59;1720038;83;26202;-61
2022/03/28 08:07:53;;;;;;;12.82;4.72;;;;;;;8.67;24.59;102275.61;1717501;81;25840;-60
2022/03/28 08:10:22;;;;;;;11.45;4.35;;;;;;;8.80;24.28;102265.05;1704760;82;25882;-60
2022/03/28 08:12:50;;;;;;;20.23;4.30;;;;;;;8.90;24.17;102266.25;1679030;83;27501;-60
2022/03/28 08:15:21;;;;;;;16.85;4.05;;;;;;;8.98;23.88;102259.95;1665570;84;25780;-61
2022/03/28 08:17:48;;;;;;;11.53;4.00;;;;;;;9.14;23.96;102253.69;1690139;83;25846;-62
2022/03/28 08:20:15;;;;;;;10.08;3.95;;;;;;;9.29;22.72;102243.86;1724117;81;25773;-62
2022/03/28 08:22:49;;;;;;;17.80;4.53;;;;;;;9.37;22.88;102238.89;1734781;81;26520;-60
2022/03/28 08:25:16;;;;;;;8.73;4.25;;;;;;;9.53;22.89;102234.80;1717800;81;27497;-60
2022/03/28 08:27:43;;;;;;;15.32;5.37;;;;;;;9.65;22.60;102228.66;1705130;82;25916;-60
2022/03/28 08:30:12;;;;;;;15.63;5.40;;;;;;;9.81;22.36;102235.80;1656414;86;25500;-61
2022/03/28 08:32:42;;;;;;;18.40;6.85;;;;;;;9.91;22.70;102227.52;1681200;84;26431;-60
2022/03/28 08:35:10;;;;;;;22.15;7.08;;;;;;;10.01;22.96;102216.58;1680914;83;25854;-60
2022/03/28 08:37:38;;;;;;;19.48;6.53;;;;;;;10.13;22.66;102216.27;1681560;83;27508;-60
2022/03/28 08:40:06;;;;;;;19.02;6.20;;;;;;;10.27;22.69;102205.12;1709409;82;25855;-61
2022/03/28 08:42:34;;;;;;;18.52;6.85;;;;;;;10.39;22.12;102204.84;1709824;83;25759;-61
2022/03/28 08:45:01;;;;;;;17.50;7.80;;;;;;;10.56;22.17;102202.41;1709647;83;25808;-61
2022/03/28 08:47:28;;;;;;;21.80;7.70;;;;;;;10.72;21.83;102199.54;1709768;83;25980;-61
2022/03/28 08:49:55;;;;;;;19.48;7.40;;;;;;;10.84;22.27;102196.53;1682543;83;27553;-61
2022/03/28 08:52:24;;;;;;;15.08;7.15;;;;;;;11.08;21.77;102212.84;1681360;84;25846;-62
2022/03/28 08:54:51;;;;;;;23.85;8.55;;;;;;;11.25;21.04;102189.65;1680936;85;25816;-60
2022/03/28 08:57:18;;;;;;;26.97;9.15;;;;;;;11.49;20.95;102195.67;1695524;83;26728;-59
2022/03/28 08:59:45;;;;;;;24.60;9.00;;;;;;;11.62;21.04;102178.63;1679546;85;25510;-60
2022/03/28 09:02:45;;;;;;;23.47;8.05;;;;;;;11.84;21.10;102170.74;1679590;85;27632;-61
2022/03/28 09:05:14;;;;;;;16.95;7.22;;;;;;;12.07;20.86;102171.44;1680292;83;25807;-61
2022/03/28 09:07:43;;;;;;;21.35;7.12;;;;;;;12.34;20.19;102167.19;1681271;83;25850;-61
2022/03/28 09:10:15;;;;;;;12.65;6.08;;;;;;;12.53;19.87;102154.05;1681098;85;25819;-61
2022/03/28 09:13:09;;;;;;;15.53;6.30;;;;;;;12.79;19.44;102166.06;1681117;85;25825;-60
2022/03/28 09:15:50;;;;;;;19.23;6.83;;;;;;;12.89;19.17;102148.69;1681244;83;27542;-61
2022/03/28 09:18:32;;;;;;;16.02;6.47;;;;;;;13.12;19.02;102126.65;1681150;85;25799;-61
2022/03/28 09:21:03;;;;;;;15.72;6.78;;;;;;;13.42;19.33;102128.44;1681489;84;25751;-60
2022/03/28 09:23:40;;;;;;;19.70;6.83;;;;;;;13.89;18.98;102122.88;1676570;84;25769;-62
2022/03/28 09:26:20;;;;;;;15.23;6.58;;;;;;;14.26;18.46;102115.80;1739646;82;25783;-62
2022/03/28 09:35:09;;;;;;;13.15;5.53;;;;;;;16.00;17.10;102092.79;1686573;83;25836;-62
2022/03/28 09:38:01;;;;;;;13.48;5.25;;;;;;;16.83;16.44;102081.51;1684093;85;26447;-61
2022/03/28 09:40:35;;;;;;;11.20;5.25;;;;;;;17.54;15.52;102074.73;1684145;83;25558;-61
2022/03/28 09:43:07;;;;;;;14.35;5.72;;;;;;;18.21;15.80;102063.59;1683624;84;27513;-61
2022/03/28 09:45:39;;;;;;;21.27;6.37;;;;;;;19.02;14.43;102055.41;1695333;83;25795;-61
2022/03/28 09:48:11;;;;;;;17.65;5.45;;;;;;;19.50;14.16;102054.46;1710382;83;25875;-61
2022/03/28 09:50:42;;;;;;;10.65;5.20;;;;;;;19.88;14.79;102045.41;1712456;83;25827;-62
2022/03/28 09:53:20;;;;;;;10.68;5.10;;;;;;;20.66;14.37;102047.89;1752426;81;25860;-61
2022/03/28 09:56:00;;;;;;;17.73;4.55;;;;;;;21.28;13.61;102037.69;1755045;81;28162;-62
2022/03/28 09:58:50;;;;;;;9.48;4.72;;;;;;;21.77;12.38;102035.27;1741518;81;26203;-62
2022/03/28 10:01:24;;;;;;;20.40;5.10;;;;;;;21.95;12.39;102034.13;1717413;81;25656;-62
2022/03/28 10:03:54;;;;;;;10.95;3.92;;;;;;;22.40;12.29;102019.28;1746199;81;25881;-62
2022/03/28 10:06:21;;;;;;;12.45;4.75;;;;;;;22.82;12.08;102017.31;1755067;81;26054;-62
2022/03/28 10:08:49;;;;;;;11.80;4.40;;;;;;;23.26;11.32;102006.05;1754764;81;27495;-61
2022/03/28 10:11:17;;;;;;;19.75;4.75;;;;;;;23.60;10.41;102009.22;1754845;81;25738;-61
2022/03/28 10:13:45;;;;;;;13.88;4.65;;;;;;;23.65;10.90;102005.36;1754533;81;25749;-62
2022/03/28 10:16:12;;;;;;;16.50;4.85;;;;;;;24.03;10.59;101994.69;1754957;81;25790;-61
2022/03/28 10:18:44;;;;;;;9.53;4.35;;;;;;;24.26;10.31;101990.36;1755212;81;26409;-62
2022/03/28 10:21:33;;;;;;;9.10;5.00;;;;;;;24.31;10.91;101985.13;1749040;81;27479;-63
2022/03/28 10:24:19;;;;;;;8.08;4.25;;;;;;;24.52;9.92;101981.48;1743859;82;25799;-64
2022/03/28 10:26:50;;;;;;;11.43;4.47;;;;;;;24.95;8.93;101981.91;1744343;82;25739;-62
2022/03/28 10:29:21;;;;;;;9.60;4.75;;;;;;;25.00;9.36;101968.92;1739742;82;26464;-63
2022/03/28 10:31:57;;;;;;;16.02;4.85;;;;;;;25.25;8.97;101965.09;1739671;81;26374;-61
2022/03/28 10:34:53;;;;;;;12.05;5.33;;;;;;;25.53;9.20;101957.28;1739774;82;27628;-61
2022/03/28 10:37:37;;;;;;;11.78;5.28;;;;;;;26.01;8.98;101952.17;1734134;82;25797;-62
2022/03/28 10:40:23;;;;;;;11.00;4.90;;;;;;;26.08;9.11;101948.95;1703210;82;25765;-62
2022/03/28 10:43:11;;;;;;;12.40;4.40;;;;;;;26.43;8.18;101956.13;1744564;82;26798;-63
2022/03/28 10:45:49;;;;;;;10.50;4.53;;;;;;;26.54;8.92;101951.34;1713652;83;25775;-62
2022/03/28 10:48:34;;;;;;;14.93;5.10;;;;;;;26.50;8.88;101936.27;1713914;82;27462;-62
2022/03/28 10:51:24;;;;;;;13.25;5.20;;;;;;;26.81;8.41;101926.99;1709536;83;25806;-63
2022/03/28 10:53:58;;;;;;;7.67;4.20;;;;;;;27.09;8.48;101919.80;1728348;82;25434;-62
2022/03/28 10:56:33;;;;;;;13.22;4.60;;;;;;;27.45;8.39;101920.27;1737526;81;25748;-62
2022/03/28 10:59:07;;;;;;;8.58;4.05;;;;;;;27.55;8.32;101910.95;1739129;82;25838;-63
2022/03/28 11:01:43;;;;;;;13.08;5.00;;;;;;;27.78;7.48;101895.72;1744518;82;27449;-63
2022/03/28 11:04:16;;;;;;;9.68;4.62;;;;;;;27.72;7.64;101891.93;1728616;82;25810;-63
2022/03/28 11:07:04;;;;;;;11.60;4.67;;;;;;;28.04;7.90;101902.93;1739218;82;25756;-62
2022/03/28 11:09:49;;;;;;;9.13;4.00;;;;;;;28.39;7.75;101878.06;1738922;82;25829;-61
2022/03/28 11:12:30;;;;;;;9.38;3.75;;;;;;;28.67;7.07;101875.31;1741915;82;25819;-63
2022/03/28 11:15:18;;;;;;;10.23;4.47;;;;;;;28.81;7.57;101866.34;1744598;82;27483;-63
2022/03/28 11:17:57;;;;;;;17.25;5.33;;;;;;;29.11;7.04;101854.41;1744337;82;25786;-62
2022/03/28 11:20:28;;;;;;;9.83;4.70;;;;;;;29.20;6.98;101857.16;1744832;82;25725;-62
2022/03/28 11:23:08;;;;;;;6.70;3.67;;;;;;;29.40;6.74;101844.45;1744634;82;25936;-63
2022/03/28 11:25:54;;;;;;;12.45;4.53;;;;;;;29.46;6.69;101831.54;1747823;82;25761;-62
2022/03/28 11:28:27;;;;;;;7.10;3.58;;;;;;;29.47;7.27;101822.14;1749747;82;28189;-62
2022/03/28 11:31:09;;;;;;;13.72;3.83;;;;;;;29.47;6.40;101820.76;1747679;82;25818;-62
2022/03/28 11:33:41;;;;;;;10.65;4.25;;;;;;;29.17;6.79;101805.02;1744559;81;25735;-62
2022/03/28 11:36:14;;;;;;;7.03;4.00;;;;;;;29.01;6.98;101801.80;1744685;82;25811;-63
2022/03/28 11:38:53;;;;;;;7.37;3.90;;;;;;;28.80;6.98;101792.09;1744406;82;25727;-62
2022/03/28 11:41:24;;;;;;;9.30;3.95;;;;;;;28.49;6.85;101787.05;1744356;82;27471;-63
2022/03/28 11:43:55;;;;;;;6.90;3.70;;;;;;;27.91;6.83;101786.92;1744449;82;25735;-62
2022/03/28 11:46:30;;;;;;;7.42;4.05;;;;;;;27.43;7.29;101779.58;1744380;81;25711;-62